Terminal Aerodrome Forecast
Issued by NWS Tulsa, OK

Home | Current Version | Previous Version | Text Only | Print | Product List | Glossary On
Versions: 1 2 3 4 5 6 7 8 9 10 11 12 13 14 15
000
FTUS44 KTSA 012300
TAFTUL
TAF
KTUL 012338Z 0200/0224 18015G25KT P6SM BKN060 BKN110
     FM020300 16010KT P6SM BKN250 PROB30 0209/0215 5SM -TSRA
      BKN050CB
     FM021500 18012G20KT P6SM OVC025 PROB30 0215/0218 4SM -TSRA
      BKN050CB
     FM021800 19013KT P6SM BKN050 PROB30 0218/0224 2SM +TSRA
      BKN030CB=

USA.gov is the U.S. government's official web portal to all federal, state and local government web resources and services.